createdAt,value
2019-05-13T00:01:37.801Z,45.03
2019-05-13T00:04:09.050Z,45.15
2019-05-13T00:06:53.115Z,45.20
2019-05-13T00:09:14.214Z,45.08
2019-05-13T00:11:45.665Z,44.99
2019-05-13T00:14:17.322Z,44.99
2019-05-13T00:16:48.982Z,44.90
2019-05-13T00:19:20.671Z,45.00
2019-05-13T00:21:52.001Z,45.03
2019-05-13T00:24:24.362Z,44.86
2019-05-13T00:26:55.519Z,45.05
2019-05-13T00:29:27.076Z,45.09
2019-05-13T00:31:58.428Z,45.26
2019-05-13T00:34:29.981Z,45.26
2019-05-13T00:37:08.911Z,45.22
2019-05-13T00:39:34.739Z,45.14
2019-05-13T00:42:06.298Z,45.21
2019-05-13T00:44:37.851Z,45.30
2019-05-13T00:47:09.097Z,45.31
2019-05-13T00:49:40.244Z,45.32
2019-05-13T00:52:14.135Z,45.34
2019-05-13T00:54:44.791Z,45.44
2019-05-13T00:57:16.291Z,45.58
2019-05-13T00:59:47.803Z,45.53
2019-05-13T01:02:19.471Z,45.60
2019-05-13T01:04:53.433Z,45.55
2019-05-13T01:07:28.604Z,45.55
2019-05-13T01:09:56.801Z,45.50
2019-05-13T01:12:28.254Z,45.57
2019-05-13T01:14:59.602Z,45.76
2019-05-13T01:17:31.064Z,45.83
2019-05-13T01:20:04.124Z,45.87
2019-05-13T01:22:35.603Z,45.73
2019-05-13T01:25:08.901Z,45.53
2019-05-13T01:27:40.261Z,45.79
2019-05-13T01:30:13.339Z,45.66
2019-05-13T01:32:45.075Z,45.58
2019-05-13T01:35:17.163Z,45.92
2019-05-13T01:37:48.942Z,45.74
2019-05-13T01:40:20.508Z,45.82
2019-05-13T01:42:54.018Z,46.05
2019-05-13T01:45:24.853Z,46.16
2019-05-13T01:47:56.402Z,45.91
2019-05-13T01:50:28.064Z,45.98
2019-05-13T01:52:59.411Z,46.01
2019-05-13T01:55:33.546Z,46.08
2019-05-13T01:58:04.642Z,46.15
2019-05-13T02:00:37.090Z,46.20
2019-05-13T02:03:08.655Z,46.28
2019-05-13T02:05:40.271Z,46.39
2019-05-13T02:08:14.069Z,46.39
2019-05-13T02:10:55.250Z,46.35
2019-05-13T02:13:26.511Z,46.57
2019-05-13T02:15:58.173Z,46.53
2019-05-13T02:18:29.725Z,46.53
2019-05-13T02:21:04.888Z,46.40
2019-05-13T02:23:34.582Z,46.43
2019-05-13T02:26:06.044Z,46.35
2019-05-13T02:28:38.561Z,46.35
2019-05-13T02:31:13.756Z,48.28
2019-05-13T02:33:43.386Z,48.28
2019-05-13T02:36:15.134Z,48.81
2019-05-13T02:38:46.589Z,48.80
2019-05-13T02:41:17.737Z,48.72
2019-05-13T02:43:52.399Z,48.58
2019-05-13T02:46:22.714Z,48.65
2019-05-13T02:48:54.048Z,48.66
2019-05-13T02:51:25.729Z,48.54
2019-05-13T02:53:57.157Z,48.77
2019-05-13T02:56:28.920Z,48.85
2019-05-13T02:59:03.456Z,48.75
2019-05-13T03:01:33.480Z,49.08
2019-05-13T03:04:05.852Z,49.08
2019-05-13T03:06:37.195Z,48.54
2019-05-13T03:09:08.745Z,48.30
2019-05-13T03:11:42.371Z,48.08
2019-05-13T03:14:13.098Z,47.65
2019-05-13T03:16:51.765Z,47.64
2019-05-13T03:19:22.713Z,47.66
2019-05-13T03:21:54.212Z,47.42
2019-05-13T03:24:25.363Z,47.18
2019-05-13T03:26:56.826Z,47.38
2019-05-13T03:29:28.282Z,47.52
2019-05-13T03:32:05.570Z,47.17
2019-05-13T03:34:36.033Z,47.22
2019-05-13T03:37:07.692Z,47.11
2019-05-13T03:39:38.805Z,46.97
2019-05-13T03:42:12.398Z,47.09
2019-05-13T03:44:44.996Z,47.08
2019-05-13T03:47:16.241Z,47.00
2019-05-13T03:49:47.387Z,47.34
2019-05-13T03:52:18.741Z,47.29
2019-05-13T03:54:52.107Z,47.03
2019-05-13T03:57:23.370Z,46.60
2019-05-13T03:59:54.840Z,46.54
2019-05-13T04:02:26.617Z,46.54
2019-05-13T04:04:59.217Z,46.55
2019-05-13T04:07:32.648Z,46.38
2019-05-13T04:10:06.202Z,46.19
2019-05-13T04:12:42.571Z,46.29
2019-05-13T04:15:12.593Z,45.95
2019-05-13T04:17:44.346Z,45.97
2019-05-13T04:20:15.605Z,45.95
2019-05-13T04:22:47.253Z,45.65
2019-05-13T04:25:18.606Z,45.20
2019-05-13T04:27:52.430Z,45.11
2019-05-13T04:30:23.471Z,45.00
2019-05-13T04:32:54.610Z,44.76
2019-05-13T04:35:26.067Z,44.32
2019-05-13T04:37:57.828Z,44.17
2019-05-13T04:40:29.490Z,43.84
2019-05-13T04:43:02.924Z,43.55
2019-05-13T04:45:34.141Z,42.94
2019-05-13T04:48:05.589Z,42.44
2019-05-13T04:50:36.845Z,42.29
2019-05-13T04:53:07.989Z,41.37
2019-05-13T04:55:42.504Z,41.31
2019-05-13T04:58:13.110Z,40.47
2019-05-13T05:01:08.799Z,40.46
2019-05-13T05:03:54.337Z,39.96
2019-05-13T05:06:38.302Z,40.04
2019-05-13T05:09:12.855Z,40.20
2019-05-13T05:12:07.016Z,39.95
2019-05-13T05:14:52.094Z,39.61
2019-05-13T05:17:42.985Z,39.58
2019-05-13T05:20:22.926Z,39.55
2019-05-13T05:23:17.638Z,39.30
2019-05-13T05:26:22.508Z,39.23
2019-05-13T05:29:02.046Z,39.14
2019-05-13T05:32:12.407Z,39.09
2019-05-13T05:35:06.695Z,38.80
2019-05-13T05:37:53.404Z,38.52
2019-05-13T05:40:31.478Z,38.31
2019-05-13T05:42:57.645Z,37.94
2019-05-13T05:45:29.312Z,38.14
2019-05-13T05:48:01.605Z,37.93
2019-05-13T05:50:32.829Z,37.74
2019-05-13T05:53:06.637Z,37.42
2019-05-13T05:55:38.402Z,37.28
2019-05-13T05:58:11.988Z,37.11
2019-05-13T06:00:42.675Z,37.07
2019-05-13T06:03:14.143Z,36.74
2019-05-13T06:05:45.447Z,36.54
2019-05-13T06:08:17.883Z,36.24
2019-05-13T06:10:52.929Z,35.86
2019-05-13T06:13:22.379Z,35.90
2019-05-13T06:15:53.936Z,35.95
2019-05-13T06:18:25.391Z,35.73
2019-05-13T06:20:56.688Z,35.63
2019-05-13T06:23:27.896Z,35.72
2019-05-13T06:26:01.957Z,35.64
2019-05-13T06:28:32.441Z,35.55
2019-05-13T06:31:04.205Z,35.45
2019-05-13T06:33:35.346Z,35.75
2019-05-13T06:36:06.701Z,35.37
2019-05-13T06:38:38.251Z,35.31
2019-05-13T06:41:13.966Z,35.38
2019-05-13T06:43:42.592Z,35.23
2019-05-13T06:46:14.965Z,34.72
2019-05-13T06:48:46.420Z,34.61
2019-05-13T06:51:18.077Z,34.54
2019-05-13T06:53:51.586Z,34.76
2019-05-13T06:56:22.115Z,34.88
2019-05-13T06:58:53.460Z,34.83
2019-05-13T07:01:25.221Z,34.23
2019-05-13T07:03:56.326Z,34.44
2019-05-13T07:06:27.602Z,34.46
2019-05-13T07:09:01.429Z,34.23
2019-05-13T07:11:33.007Z,34.08
2019-05-13T07:14:04.449Z,33.57
2019-05-13T07:16:35.660Z,33.22
2019-05-13T07:19:07.349Z,32.81
2019-05-13T07:21:38.601Z,32.89
2019-05-13T07:24:12.392Z,32.89
2019-05-13T07:26:43.043Z,33.28
2019-05-13T07:29:15.187Z,33.06
2019-05-13T07:31:46.771Z,33.10
2019-05-13T07:34:17.922Z,33.02
2019-05-13T07:36:51.329Z,32.88
2019-05-13T07:39:22.685Z,32.52
2019-05-13T07:41:54.024Z,32.51
2019-05-13T07:44:25.784Z,33.24
2019-05-13T07:46:57.345Z,33.07
2019-05-13T07:49:31.402Z,33.10
2019-05-13T07:52:02.302Z,32.66
2019-05-13T07:54:33.656Z,32.60
2019-05-13T07:57:05.104Z,31.91
2019-05-13T07:59:36.247Z,32.16
2019-05-13T08:02:07.431Z,31.22
2019-05-13T08:04:41.910Z,30.59
2019-05-13T08:07:12.199Z,30.07
2019-05-13T08:09:43.605Z,29.58
2019-05-13T08:12:15.043Z,29.36
2019-05-13T08:14:46.309Z,30.21
2019-05-13T08:17:17.873Z,30.77
2019-05-13T08:19:49.116Z,30.11
2019-05-13T08:22:22.107Z,28.85
2019-05-13T08:24:54.400Z,27.23
2019-05-13T08:27:30.214Z,27.75
2019-05-13T08:30:01.475Z,28.57
2019-05-13T08:32:32.022Z,28.97
2019-05-13T08:35:08.928Z,28.90
2019-05-13T08:37:36.570Z,28.02
2019-05-13T08:40:11.873Z,27.82
2019-05-13T08:42:43.588Z,25.83
2019-05-13T08:45:15.236Z,27.59
2019-05-13T08:47:46.491Z,27.26
2019-05-13T08:50:18.047Z,26.61
2019-05-13T08:52:51.119Z,26.03
2019-05-13T08:55:21.976Z,24.99
2019-05-13T08:57:55.106Z,24.33
2019-05-13T09:00:52.881Z,24.26
2019-05-13T09:03:24.067Z,24.57
2019-05-13T09:05:55.237Z,24.93
2019-05-13T09:08:26.418Z,25.02
2019-05-13T09:10:58.052Z,24.33
2019-05-13T09:13:29.089Z,22.58
2019-05-13T09:16:02.465Z,23.21
2019-05-13T09:18:33.643Z,23.83
2019-05-13T09:21:04.683Z,25.04
2019-05-13T09:23:35.935Z,25.57
2019-05-13T09:26:07.493Z,26.18
2019-05-13T09:28:38.750Z,26.04
2019-05-13T09:31:12.378Z,26.49
2019-05-13T09:33:42.680Z,26.32
2019-05-13T09:36:14.136Z,26.27
2019-05-13T09:38:45.504Z,25.80
2019-05-13T09:41:17.045Z,25.64
2019-05-13T09:43:48.599Z,26.11
2019-05-13T09:46:22.363Z,25.81
2019-05-13T09:48:52.641Z,26.17
2019-05-13T09:51:24.293Z,25.91
2019-05-13T09:53:55.752Z,25.48
2019-05-13T09:56:26.898Z,26.20
2019-05-13T09:58:58.454Z,26.13
2019-05-13T10:01:32.017Z,25.57
2019-05-13T10:04:03.339Z,25.09
2019-05-13T10:06:34.663Z,25.36
2019-05-13T10:09:07.553Z,25.65
2019-05-13T10:11:38.911Z,24.40
2019-05-13T10:14:11.654Z,24.40
2019-05-13T10:16:44.078Z,24.28
2019-05-13T10:19:15.221Z,23.95
2019-05-13T10:21:46.775Z,23.91
2019-05-13T10:24:18.761Z,23.63
2019-05-13T10:26:51.475Z,23.18
2019-05-13T10:29:22.828Z,23.14
2019-05-13T10:31:53.964Z,22.52
2019-05-13T10:34:25.385Z,22.89
2019-05-13T10:36:56.941Z,22.18
2019-05-13T10:39:28.195Z,22.34
2019-05-13T10:41:59.547Z,22.97
2019-05-13T10:44:31.204Z,22.93
2019-05-13T10:47:03.739Z,23.32
2019-05-13T10:49:35.443Z,23.30
2019-05-13T10:52:06.494Z,24.80
2019-05-13T10:54:38.146Z,25.72
2019-05-13T10:57:09.193Z,25.19
2019-05-13T10:59:40.654Z,26.74
2019-05-13T11:02:13.388Z,29.14
2019-05-13T11:04:44.685Z,30.53
2019-05-13T11:07:16.242Z,30.07
2019-05-13T11:09:47.597Z,31.32
2019-05-13T11:12:19.661Z,31.25
2019-05-13T11:14:55.181Z,31.37
2019-05-13T11:17:31.141Z,31.78
2019-05-13T11:19:58.019Z,31.95
2019-05-13T11:22:32.133Z,30.99
2019-05-13T11:25:02.777Z,31.30
2019-05-13T11:27:34.434Z,30.24
2019-05-13T11:30:07.659Z,29.78
2019-05-13T11:32:42.723Z,29.56
2019-05-13T11:35:14.024Z,28.98
2019-05-13T11:37:45.676Z,28.68
2019-05-13T11:40:17.058Z,27.37
2019-05-13T11:42:48.376Z,26.50
2019-05-13T11:45:22.316Z,24.55
2019-05-13T11:47:52.919Z,23.93
2019-05-13T11:50:24.377Z,23.50
2019-05-13T11:52:56.032Z,22.46
2019-05-13T11:55:29.024Z,22.23
2019-05-13T11:58:02.915Z,25.45
2019-05-13T12:00:53.156Z,28.58
2019-05-13T12:03:24.171Z,29.16
2019-05-13T12:05:55.729Z,28.97
2019-05-13T12:08:27.080Z,29.94
2019-05-13T12:10:58.224Z,29.57
2019-05-13T12:13:29.374Z,30.07
2019-05-13T12:16:03.670Z,29.25
2019-05-13T12:18:33.672Z,28.95
2019-05-13T12:21:05.271Z,29.02
2019-05-13T12:23:36.927Z,28.73
2019-05-13T12:26:08.178Z,28.65
2019-05-13T12:28:41.530Z,28.24
2019-05-13T12:31:14.058Z,27.70
2019-05-13T12:33:45.723Z,26.95
2019-05-13T12:36:18.812Z,25.75
2019-05-13T12:38:53.536Z,25.59
2019-05-13T12:41:24.392Z,26.64
2019-05-13T12:43:55.329Z,28.73
2019-05-13T12:46:26.783Z,30.83
2019-05-13T12:48:58.354Z,34.48
2019-05-13T12:51:32.457Z,37.94
2019-05-13T12:54:03.841Z,40.01
2019-05-13T12:56:35.266Z,40.61
2019-05-13T12:59:06.964Z,39.76
2019-05-13T13:01:38.404Z,39.21
2019-05-13T13:04:12.326Z,39.38
2019-05-13T13:06:45.347Z,39.71
2019-05-13T13:09:15.614Z,38.88
2019-05-13T13:11:46.762Z,37.98
2019-05-13T13:14:18.162Z,37.70
2019-05-13T13:16:53.475Z,37.10
2019-05-13T13:19:23.066Z,36.35
2019-05-13T13:22:02.918Z,36.11
2019-05-13T13:24:28.537Z,35.96
2019-05-13T13:27:00.710Z,35.73
2019-05-13T13:29:34.075Z,34.63
2019-05-13T13:32:05.251Z,33.86
2019-05-13T13:34:36.403Z,34.43
2019-05-13T13:37:08.060Z,34.74
2019-05-13T13:39:42.330Z,34.29
2019-05-13T13:42:13.142Z,34.15
2019-05-13T13:44:45.504Z,34.29
2019-05-13T13:47:17.157Z,34.17
2019-05-13T13:49:49.749Z,34.39
2019-05-13T13:52:22.957Z,34.41
2019-05-13T13:55:02.919Z,34.97
2019-05-13T13:57:27.792Z,35.21
2019-05-13T14:00:32.834Z,36.05
2019-05-13T14:02:37.034Z,36.14
2019-05-13T14:05:06.651Z,36.07
2019-05-13T14:07:42.386Z,36.17
2019-05-13T14:10:14.274Z,35.67
2019-05-13T14:12:45.517Z,35.28
2019-05-13T14:15:16.876Z,35.28
2019-05-13T14:17:47.918Z,34.89
2019-05-13T14:20:21.791Z,34.66
2019-05-13T14:22:57.571Z,34.38
2019-05-13T14:25:24.835Z,33.76
2019-05-13T14:27:56.399Z,33.27
2019-05-13T14:30:27.656Z,32.08
2019-05-13T14:32:59.086Z,32.32
2019-05-13T14:35:30.249Z,32.71
2019-05-13T14:38:02.450Z,32.58
2019-05-13T14:40:34.074Z,32.27
2019-05-13T14:43:05.328Z,31.71
2019-05-13T14:45:36.677Z,32.00
2019-05-13T14:48:08.244Z,31.77
2019-05-13T14:50:41.600Z,31.70
2019-05-13T14:53:12.580Z,31.91
2019-05-13T14:55:43.929Z,32.45
2019-05-13T14:58:15.282Z,32.11
2019-05-13T15:00:46.940Z,32.52
2019-05-13T15:03:18.188Z,32.48
2019-05-13T15:05:49.648Z,32.56
2019-05-13T15:08:25.929Z,33.18
2019-05-13T15:10:57.794Z,33.30
2019-05-13T15:13:31.887Z,33.47
2019-05-13T15:16:02.726Z,33.43
2019-05-13T15:18:33.871Z,33.43
2019-05-13T15:21:05.734Z,33.52
2019-05-13T15:23:37.206Z,34.33
2019-05-13T15:26:08.857Z,34.24
2019-05-13T15:28:42.203Z,34.35
2019-05-13T15:31:13.291Z,33.91
2019-05-13T15:33:44.726Z,34.04
2019-05-13T15:36:16.098Z,33.71
2019-05-13T15:38:47.451Z,33.88
2019-05-13T15:41:18.699Z,33.89
2019-05-13T15:43:51.871Z,34.26
2019-05-13T15:46:23.246Z,34.65
2019-05-13T15:48:54.493Z,35.05
2019-05-13T15:51:26.046Z,35.38
2019-05-13T15:53:59.519Z,35.23
2019-05-13T15:56:31.488Z,35.43
2019-05-13T15:59:02.994Z,35.94
2019-05-13T16:01:34.529Z,36.60
2019-05-13T16:04:05.986Z,36.93
2019-05-13T16:06:37.433Z,36.98
2019-05-13T16:09:11.668Z,37.78
2019-05-13T16:11:42.500Z,38.48
2019-05-13T16:14:15.074Z,38.62
2019-05-13T16:16:46.735Z,39.21
2019-05-13T16:19:17.987Z,39.65
2019-05-13T16:21:51.655Z,39.46
2019-05-13T16:24:22.436Z,39.50
2019-05-13T16:26:53.683Z,39.20
2019-05-13T16:29:25.028Z,39.16
2019-05-13T16:31:56.485Z,39.23
2019-05-13T16:34:28.045Z,39.70
2019-05-13T16:37:01.827Z,39.70
2019-05-13T16:39:32.487Z,39.60
2019-05-13T16:42:04.141Z,40.01
2019-05-13T16:44:37.653Z,40.16
2019-05-13T16:47:12.154Z,42.14
2019-05-13T16:49:42.200Z,41.96
2019-05-13T16:52:13.856Z,41.30
2019-05-13T16:54:45.513Z,42.44
2019-05-13T16:57:16.861Z,41.32
2019-05-13T16:59:48.626Z,41.50
2019-05-13T17:02:19.883Z,40.87
2019-05-13T17:04:52.121Z,40.62
2019-05-13T17:07:23.611Z,40.31
2019-05-13T17:09:54.954Z,39.78
2019-05-13T17:12:26.305Z,39.69
2019-05-13T17:14:57.962Z,39.24
2019-05-13T17:17:31.210Z,39.71
2019-05-13T17:20:02.721Z,40.37
2019-05-13T17:22:34.067Z,41.27
2019-05-13T17:25:06.378Z,41.09
2019-05-13T17:27:37.803Z,40.98
2019-05-13T17:30:11.367Z,40.93
2019-05-13T17:32:42.142Z,41.03
2019-05-13T17:35:13.289Z,41.24
2019-05-13T17:37:44.534Z,41.44
2019-05-13T17:40:15.990Z,41.11
2019-05-13T17:42:46.992Z,40.59
2019-05-13T17:45:18.079Z,40.27
2019-05-13T17:47:51.864Z,39.80
2019-05-13T17:50:22.443Z,39.91
2019-05-13T17:52:54.073Z,39.66
2019-05-13T17:55:25.641Z,39.50
2019-05-13T17:57:56.894Z,39.49
2019-05-13T18:00:28.247Z,39.00
2019-05-13T18:03:01.747Z,39.75
2019-05-13T18:05:32.694Z,40.26
2019-05-13T18:08:04.249Z,40.57
2019-05-13T18:10:35.810Z,41.20
2019-05-13T18:13:07.363Z,41.63
2019-05-13T18:15:39.129Z,41.03
2019-05-13T18:18:12.009Z,42.39
2019-05-13T18:20:43.684Z,41.33
2019-05-13T18:23:15.336Z,42.13
2019-05-13T18:25:46.890Z,42.12
2019-05-13T18:28:28.614Z,41.92
2019-05-13T18:30:52.111Z,41.88
2019-05-13T18:33:23.735Z,41.76
2019-05-13T18:35:55.048Z,41.75
2019-05-13T18:38:26.162Z,41.75
2019-05-13T18:40:57.446Z,41.46
2019-05-13T18:43:28.683Z,41.43
2019-05-13T18:46:02.083Z,41.82
2019-05-13T18:48:33.389Z,42.46
2019-05-13T18:51:04.562Z,42.90
2019-05-13T18:53:36.147Z,44.49
2019-05-13T18:56:07.811Z,45.45
2019-05-13T18:58:39.259Z,45.63
2019-05-13T19:01:11.325Z,46.55
2019-05-13T19:03:42.684Z,46.29
2019-05-13T19:06:13.930Z,46.17
2019-05-13T19:08:45.287Z,45.90
2019-05-13T19:11:16.835Z,45.30
2019-05-13T19:13:48.289Z,44.84
2019-05-13T19:16:21.318Z,44.16
2019-05-13T19:18:53.043Z,43.76
2019-05-13T19:21:24.394Z,43.51
2019-05-13T19:23:56.057Z,42.93
2019-05-13T19:26:27.406Z,43.18
2019-05-13T19:28:58.862Z,43.18
2019-05-13T19:31:32.344Z,42.90
2019-05-13T19:34:03.209Z,43.35
2019-05-13T19:36:34.554Z,42.56
2019-05-13T19:39:07.127Z,43.24
2019-05-13T19:41:38.995Z,43.34
2019-05-13T19:44:10.250Z,43.64
2019-05-13T19:46:42.137Z,43.81
2019-05-13T19:49:27.376Z,44.20
2019-05-13T19:51:46.659Z,44.00
2019-05-13T19:54:18.730Z,44.36
2019-05-13T19:56:52.069Z,44.53
2019-05-13T19:59:22.662Z,44.04
2019-05-13T20:01:54.213Z,44.34
2019-05-13T20:04:25.769Z,43.49
2019-05-13T20:06:57.021Z,43.93
2019-05-13T20:09:28.476Z,43.31
2019-05-13T20:12:01.972Z,43.36
2019-05-13T20:14:32.838Z,43.31
2019-05-13T20:17:04.588Z,42.73
2019-05-13T20:19:49.380Z,42.78
2019-05-13T20:22:11.632Z,42.23
2019-05-13T20:24:43.045Z,42.59
2019-05-13T20:27:14.189Z,42.68
2019-05-13T20:29:45.758Z,42.58
2019-05-13T20:32:16.995Z,43.20
2019-05-13T20:34:48.246Z,43.04
2019-05-13T20:37:21.442Z,42.42
2019-05-13T20:39:52.480Z,42.88
2019-05-13T20:42:23.834Z,42.59
2019-05-13T20:44:56.100Z,42.37
2019-05-13T20:47:27.866Z,42.56
2019-05-13T20:50:02.291Z,42.60
2019-05-13T20:52:33.438Z,42.55
2019-05-13T20:55:07.151Z,42.65
2019-05-13T20:57:38.398Z,42.41
2019-05-13T21:00:09.850Z,42.74
2019-05-13T21:02:42.741Z,42.99
2019-05-13T21:05:13.888Z,42.64
2019-05-13T21:07:45.136Z,42.89
2019-05-13T21:10:16.385Z,42.62
2019-05-13T21:12:47.737Z,42.56
2019-05-13T21:15:19.088Z,42.59
2019-05-13T21:17:51.607Z,43.21
2019-05-13T21:20:25.860Z,43.79
2019-05-13T21:22:56.003Z,44.32
2019-05-13T21:25:27.153Z,44.34
2019-05-13T21:27:58.807Z,44.47
2019-05-13T21:30:30.161Z,44.42
2019-05-13T21:33:02.249Z,45.39
2019-05-13T21:35:33.481Z,45.46
2019-05-13T21:38:05.181Z,45.73
2019-05-13T21:40:36.903Z,45.39
2019-05-13T21:43:08.563Z,45.11
2019-05-13T21:45:41.548Z,45.92
2019-05-13T21:48:12.826Z,45.45
2019-05-13T21:50:43.947Z,45.78
2019-05-13T21:53:15.302Z,45.43
2019-05-13T21:55:46.857Z,45.38
2019-05-13T21:58:18.521Z,45.76
2019-05-13T22:00:52.043Z,45.27
2019-05-13T22:03:24.298Z,44.93
2019-05-13T22:05:55.748Z,44.76
2019-05-13T22:08:27.203Z,44.45
2019-05-13T22:10:58.858Z,44.52
2019-05-13T22:13:31.552Z,44.62
2019-05-13T22:16:02.904Z,44.18
2019-05-13T22:18:34.657Z,44.47
2019-05-13T22:21:06.422Z,44.29
2019-05-13T22:23:37.561Z,44.52
2019-05-13T22:26:11.533Z,44.01
2019-05-13T22:28:42.016Z,44.42
2019-05-13T22:31:13.265Z,44.52
2019-05-13T22:33:45.283Z,44.29
2019-05-13T22:36:16.695Z,45.13
2019-05-13T22:38:48.042Z,45.36
2019-05-13T22:41:19.506Z,45.42
2019-05-13T22:43:58.177Z,45.86
2019-05-13T22:46:23.555Z,46.03
2019-05-13T22:48:54.678Z,45.90
2019-05-13T22:51:26.344Z,46.68
2019-05-13T22:53:57.895Z,47.33
2019-05-13T22:56:29.053Z,47.33
2019-05-13T22:59:02.053Z,48.96
2019-05-13T23:01:33.791Z,48.12
2019-05-13T23:04:06.369Z,48.37
2019-05-13T23:06:38.039Z,48.69
2019-05-13T23:09:12.347Z,48.30
2019-05-13T23:11:42.475Z,48.30
2019-05-13T23:14:14.031Z,49.27
2019-05-13T23:16:45.482Z,48.99
2019-05-13T23:19:16.942Z,47.93
2019-05-13T23:21:48.602Z,48.00
2019-05-13T23:24:21.958Z,47.02
2019-05-13T23:26:53.148Z,47.20
2019-05-13T23:29:24.394Z,46.54
2019-05-13T23:31:56.066Z,46.55
2019-05-13T23:34:27.312Z,46.62
2019-05-13T23:36:59.069Z,47.08
2019-05-13T23:39:32.198Z,46.39
2019-05-13T23:42:03.411Z,46.25
2019-05-13T23:44:34.865Z,45.99
2019-05-13T23:47:06.320Z,45.66
2019-05-13T23:49:38.995Z,45.40
2019-05-13T23:52:11.741Z,45.35
2019-05-13T23:54:43.028Z,45.33
2019-05-13T23:57:14.178Z,45.42
2019-05-13T23:59:45.527Z,45.44
